sensor_id;sensor_type;location;lat;lon;timestamp;pressure;altitude;pressure_sealevel;temperature;humidity
25664;BME280;13522;50.018;20.014;2023-02-28T00:01:19;100119.30;;;0.30;91.85
25664;BME280;13522;50.018;20.014;2023-02-28T00:04:31;100127.11;;;0.32;90.79
25664;BME280;13522;50.018;20.014;2023-02-28T00:07:43;100121.20;;;0.25;89.76
25664;BME280;13522;50.018;20.014;2023-02-28T00:10:56;100126.50;;;0.22;91.25
25664;BME280;13522;50.018;20.014;2023-02-28T00:14:12;100123.08;;;0.20;91.84
25664;BME280;13522;50.018;20.014;2023-02-28T00:17:24;100137.06;;;0.19;92.19
25664;BME280;13522;50.018;20.014;2023-02-28T00:20:36;100124.89;;;0.18;92.48
25664;BME280;13522;50.018;20.014;2023-02-28T00:23:49;100137.11;;;0.18;92.77
25664;BME280;13522;50.018;20.014;2023-02-28T00:27:01;100136.48;;;0.10;92.20
25664;BME280;13522;50.018;20.014;2023-02-28T00:30:15;100133.89;;;0.08;92.29
25664;BME280;13522;50.018;20.014;2023-02-28T00:33:27;100139.28;;;0.02;91.62
25664;BME280;13522;50.018;20.014;2023-02-28T00:36:40;100133.36;;;-0.03;91.93
25664;BME280;13522;50.018;20.014;2023-02-28T00:39:53;100129.12;;;-0.07;92.29
25664;BME280;13522;50.018;20.014;2023-02-28T00:43:06;100132.55;;;-0.05;92.16
25664;BME280;13522;50.018;20.014;2023-02-28T00:46:19;100131.02;;;-0.12;91.83
25664;BME280;13522;50.018;20.014;2023-02-28T00:49:31;100130.20;;;-0.14;92.95
25664;BME280;13522;50.018;20.014;2023-02-28T00:52:44;100133.70;;;-0.15;92.45
25664;BME280;13522;50.018;20.014;2023-02-28T00:55:56;100130.56;;;-0.28;94.28
25664;BME280;13522;50.018;20.014;2023-02-28T00:59:10;100126.38;;;-0.33;94.00
25664;BME280;13522;50.018;20.014;2023-02-28T01:02:23;100135.19;;;-0.37;94.18
25664;BME280;13522;50.018;20.014;2023-02-28T01:05:35;100133.70;;;-0.46;95.83
25664;BME280;13522;50.018;20.014;2023-02-28T01:08:48;100131.05;;;-0.44;94.60
25664;BME280;13522;50.018;20.014;2023-02-28T01:12:01;100135.52;;;-0.49;94.32
25664;BME280;13522;50.018;20.014;2023-02-28T01:15:14;100133.98;;;-0.56;94.59
25664;BME280;13522;50.018;20.014;2023-02-28T01:18:26;100134.86;;;-0.57;95.31
25664;BME280;13522;50.018;20.014;2023-02-28T01:21:39;100135.78;;;-0.58;95.13
25664;BME280;13522;50.018;20.014;2023-02-28T01:24:51;100139.27;;;-0.59;94.82
25664;BME280;13522;50.018;20.014;2023-02-28T01:28:04;100130.63;;;-0.61;95.58
25664;BME280;13522;50.018;20.014;2023-02-28T01:31:17;100134.20;;;-0.64;95.50
25664;BME280;13522;50.018;20.014;2023-02-28T01:34:29;100134.14;;;-0.62;95.93
25664;BME280;13522;50.018;20.014;2023-02-28T01:37:42;100138.59;;;-0.66;97.19
25664;BME280;13522;50.018;20.014;2023-02-28T01:40:54;100136.03;;;-0.67;97.35
25664;BME280;13522;50.018;20.014;2023-02-28T01:47:52;100133.53;;;-0.72;97.61
25664;BME280;13522;50.018;20.014;2023-02-28T01:51:10;100137.16;;;-0.77;96.64
25664;BME280;13522;50.018;20.014;2023-02-28T01:54:28;100132.77;;;-0.75;97.86
25664;BME280;13522;50.018;20.014;2023-02-28T01:57:45;100128.22;;;-0.69;98.97
25664;BME280;13522;50.018;20.014;2023-02-28T02:01:01;100136.03;;;-0.67;99.55
25664;BME280;13522;50.018;20.014;2023-02-28T02:04:13;100141.25;;;-0.67;100.00
25664;BME280;13522;50.018;20.014;2023-02-28T02:07:27;100134.40;;;-0.71;100.00
25664;BME280;13522;50.018;20.014;2023-02-28T02:10:45;100124.94;;;-0.75;99.65
25664;BME280;13522;50.018;20.014;2023-02-28T02:14:20;100125.16;;;-0.84;99.64
25664;BME280;13522;50.018;20.014;2023-02-28T02:17:48;100117.44;;;-0.89;99.10
25664;BME280;13522;50.018;20.014;2023-02-28T02:21:24;100122.91;;;-0.98;99.57
25664;BME280;13522;50.018;20.014;2023-02-28T02:25:13;100123.25;;;-1.12;98.64
25664;BME280;13522;50.018;20.014;2023-02-28T02:29:06;100127.69;;;-1.15;99.49
25664;BME280;13522;50.018;20.014;2023-02-28T02:33:01;100124.41;;;-1.23;99.98
25664;BME280;13522;50.018;20.014;2023-02-28T02:36:25;100125.23;;;-1.23;100.00
25664;BME280;13522;50.018;20.014;2023-02-28T02:39:47;100119.97;;;-1.20;100.00
25664;BME280;13522;50.018;20.014;2023-02-28T02:43:03;100109.61;;;-1.23;100.00
25664;BME280;13522;50.018;20.014;2023-02-28T02:46:22;100112.30;;;-1.26;100.00
25664;BME280;13522;50.018;20.014;2023-02-28T02:49:40;100114.23;;;-1.34;100.00
25664;BME280;13522;50.018;20.014;2023-02-28T02:52:54;100112.45;;;-1.32;100.00
25664;BME280;13522;50.018;20.014;2023-02-28T02:56:09;100113.50;;;-1.39;100.00
25664;BME280;13522;50.018;20.014;2023-02-28T02:59:24;100104.92;;;-1.44;100.00
25664;BME280;13522;50.018;20.014;2023-02-28T03:02:38;100107.56;;;-1.45;100.00
25664;BME280;13522;50.018;20.014;2023-02-28T03:05:56;100109.27;;;-1.44;100.00
25664;BME280;13522;50.018;20.014;2023-02-28T03:09:10;100111.04;;;-1.45;100.00
25664;BME280;13522;50.018;20.014;2023-02-28T03:12:28;100112.92;;;-1.51;100.00
25664;BME280;13522;50.018;20.014;2023-02-28T03:15:50;100112.96;;;-1.53;100.00
25664;BME280;13522;50.018;20.014;2023-02-28T03:19:21;100109.55;;;-1.56;100.00
25664;BME280;13522;50.018;20.014;2023-02-28T03:22:48;100122.70;;;-1.61;100.00
25664;BME280;13522;50.018;20.014;2023-02-28T03:26:06;100119.27;;;-1.63;100.00
25664;BME280;13522;50.018;20.014;2023-02-28T03:29:23;100128.82;;;-1.63;100.00
25664;BME280;13522;50.018;20.014;2023-02-28T03:32:42;100138.51;;;-1.70;100.00
25664;BME280;13522;50.018;20.014;2023-02-28T03:35:57;100137.69;;;-1.72;100.00
25664;BME280;13522;50.018;20.014;2023-02-28T03:39:16;100136.86;;;-1.74;100.00
25664;BME280;13522;50.018;20.014;2023-02-28T03:42:31;100138.77;;;-1.82;100.00
25664;BME280;13522;50.018;20.014;2023-02-28T03:45:47;100139.67;;;-1.83;100.00
25664;BME280;13522;50.018;20.014;2023-02-28T03:49:03;100143.16;;;-1.84;100.00
25664;BME280;13522;50.018;20.014;2023-02-28T03:52:21;100143.16;;;-1.84;100.00
25664;BME280;13522;50.018;20.014;2023-02-28T03:55:38;100144.11;;;-1.88;100.00
25664;BME280;13522;50.018;20.014;2023-02-28T03:58:57;100154.56;;;-1.90;100.00
25664;BME280;13522;50.018;20.014;2023-02-28T04:02:11;100152.87;;;-1.92;100.00
25664;BME280;13522;50.018;20.014;2023-02-28T04:05:25;100154.60;;;-1.91;100.00
25664;BME280;13522;50.018;20.014;2023-02-28T04:08:38;100154.64;;;-1.93;100.00
25664;BME280;13522;50.018;20.014;2023-02-28T04:11:52;100155.64;;;-2.00;100.00
25664;BME280;13522;50.018;20.014;2023-02-28T04:15:08;100162.63;;;-2.02;100.00
25664;BME280;13522;50.018;20.014;2023-02-28T04:18:20;100159.19;;;-2.04;100.00
25664;BME280;13522;50.018;20.014;2023-02-28T04:21:34;100161.83;;;-2.05;100.00
25664;BME280;13522;50.018;20.014;2023-02-28T04:24:48;100139.52;;;-2.17;100.00
25664;BME280;13522;50.018;20.014;2023-02-28T04:28:00;100156.71;;;-2.10;100.00
25664;BME280;13522;50.018;20.014;2023-02-28T04:31:12;100165.38;;;-2.09;100.00
25664;BME280;13522;50.018;20.014;2023-02-28T04:34:28;100166.30;;;-2.12;100.00
25664;BME280;13522;50.018;20.014;2023-02-28T04:37:41;100175.91;;;-2.15;100.00
25664;BME280;13522;50.018;20.014;2023-02-28T04:40:53;100172.48;;;-2.17;100.00
25664;BME280;13522;50.018;20.014;2023-02-28T04:44:12;100171.66;;;-2.19;100.00
25664;BME280;13522;50.018;20.014;2023-02-28T04:47:24;100176.03;;;-2.21;100.00
25664;BME280;13522;50.018;20.014;2023-02-28T04:50:36;100172.67;;;-2.26;100.00
25664;BME280;13522;50.018;20.014;2023-02-28T04:53:52;100173.58;;;-2.29;100.00
25664;BME280;13522;50.018;20.014;2023-02-28T04:57:04;100177.05;;;-2.28;100.00
25664;BME280;13522;50.018;20.014;2023-02-28T05:00:19;100177.09;;;-2.30;100.00
25664;BME280;13522;50.018;20.014;2023-02-28T05:03:32;100180.52;;;-2.29;100.00
25664;BME280;13522;50.018;20.014;2023-02-28T05:06:47;100181.42;;;-2.30;100.00
25664;BME280;13522;50.018;20.014;2023-02-28T05:09:59;100190.96;;;-2.31;100.00
25664;BME280;13522;50.018;20.014;2023-02-28T05:13:13;100187.61;;;-2.37;100.00
25664;BME280;13522;50.018;20.014;2023-02-28T05:16:25;100192.81;;;-2.37;100.00
25664;BME280;13522;50.018;20.014;2023-02-28T05:19:37;100178.11;;;-2.38;100.00
25664;BME280;13522;50.018;20.014;2023-02-28T05:22:51;100181.65;;;-2.42;100.00
25664;BME280;13522;50.018;20.014;2023-02-28T05:26:04;100191.98;;;-2.39;100.00
25664;BME280;13522;50.018;20.014;2023-02-28T05:29:15;100189.34;;;-2.36;100.00
25664;BME280;13522;50.018;20.014;2023-02-28T05:32:27;100195.38;;;-2.34;100.00
25664;BME280;13522;50.018;20.014;2023-02-28T05:35:45;100195.41;;;-2.37;100.00
25664;BME280;13522;50.018;20.014;2023-02-28T05:38:57;100208.42;;;-2.37;100.00
25664;BME280;13522;50.018;20.014;2023-02-28T05:42:09;100211.09;;;-2.40;100.00
25664;BME280;13522;50.018;20.014;2023-02-28T05:45:21;100217.99;;;-2.39;100.00
25664;BME280;13522;50.018;20.014;2023-02-28T05:48:35;100224.13;;;-2.42;100.00
25664;BME280;13522;50.018;20.014;2023-02-28T05:51:49;100228.36;;;-2.36;100.00
25664;BME280;13522;50.018;20.014;2023-02-28T05:55:02;100222.25;;;-2.34;100.00
25664;BME280;13522;50.018;20.014;2023-02-28T05:58:14;100229.84;;;-2.23;100.00
25664;BME280;13522;50.018;20.014;2023-02-28T06:01:34;100229.69;;;-2.16;100.00
25664;BME280;13522;50.018;20.014;2023-02-28T06:04:47;100229.65;;;-2.13;100.00
25664;BME280;13522;50.018;20.014;2023-02-28T06:08:00;100234.89;;;-2.14;100.00
25664;BME280;13522;50.018;20.014;2023-02-28T06:11:13;100233.13;;;-2.14;100.00
25664;BME280;13522;50.018;20.014;2023-02-28T06:14:31;100236.48;;;-2.07;100.00
25664;BME280;13522;50.018;20.014;2023-02-28T06:17:44;100241.38;;;-1.92;100.00
25664;BME280;13522;50.018;20.014;2023-02-28T06:20:59;100238.53;;;-1.80;100.00
25664;BME280;13522;50.018;20.014;2023-02-28T06:24:15;100243.41;;;-1.63;100.00
25664;BME280;13522;50.018;20.014;2023-02-28T06:46:03;100258.92;;;-1.57;100.00
25664;BME280;13522;50.018;20.014;2023-02-28T06:49:18;100251.89;;;-1.54;100.00
25664;BME280;13522;50.018;20.014;2023-02-28T06:52:30;100255.16;;;-1.44;100.00
25664;BME280;13522;50.018;20.014;2023-02-28T06:58:45;100266.23;;;-1.33;100.00
25664;BME280;13522;50.018;20.014;2023-02-28T07:01:59;100266.09;;;-1.27;100.00
25664;BME280;13522;50.018;20.014;2023-02-28T07:08:13;100274.83;;;-1.30;100.00
25664;BME280;13522;50.018;20.014;2023-02-28T07:11:27;100270.58;;;-1.34;100.00
25664;BME280;13522;50.018;20.014;2023-02-28T07:14:40;100274.74;;;-1.25;100.00
25664;BME280;13522;50.018;20.014;2023-02-28T07:20:52;100281.66;;;-1.24;100.00
25664;BME280;13522;50.018;20.014;2023-02-28T07:24:06;100290.38;;;-1.27;100.00
25664;BME280;13522;50.018;20.014;2023-02-28T07:27:20;100285.86;;;-1.17;100.00
25664;BME280;13522;50.018;20.014;2023-02-28T07:33:34;100278.88;;;-1.17;100.00
25664;BME280;13522;50.018;20.014;2023-02-28T07:36:47;100287.61;;;-0.79;100.00
25664;BME280;13522;50.018;20.014;2023-02-28T07:39:59;100279.08;;;-0.51;99.54
25664;BME280;13522;50.018;20.014;2023-02-28T07:43:15;100282.16;;;-0.35;98.55
25664;BME280;13522;50.018;20.014;2023-02-28T07:46:27;100276.27;;;-0.43;97.35
25664;BME280;13522;50.018;20.014;2023-02-28T07:49:42;100286.03;;;-0.51;97.42
25664;BME280;13522;50.018;20.014;2023-02-28T07:52:54;100278.92;;;-0.45;97.01
25664;BME280;13522;50.018;20.014;2023-02-28T07:56:08;100276.73;;;-0.26;97.29
25664;BME280;13522;50.018;20.014;2023-02-28T07:59:20;100270.28;;;-0.13;96.60
25664;BME280;13522;50.018;20.014;2023-02-28T08:05:39;100272.23;;;-0.21;93.93
25664;BME280;13522;50.018;20.014;2023-02-28T08:08:50;100266.48;;;-0.02;93.83
25664;BME280;13522;50.018;20.014;2023-02-28T08:12:03;100269.13;;;0.29;92.07
25664;BME280;13522;50.018;20.014;2023-02-28T08:15:15;100265.44;;;0.36;91.02
25664;BME280;13522;50.018;20.014;2023-02-28T08:18:27;100270.14;;;0.54;90.89
25664;BME280;13522;50.018;20.014;2023-02-28T08:21:40;100265.43;;;0.67;89.62
25664;BME280;13522;50.018;20.014;2023-02-28T08:24:52;100266.69;;;0.83;89.38
25664;BME280;13522;50.018;20.014;2023-02-28T08:28:05;100267.34;;;0.89;84.30
25664;BME280;13522;50.018;20.014;2023-02-28T08:31:18;100275.30;;;1.14;84.63
25664;BME280;13522;50.018;20.014;2023-02-28T08:34:30;100274.31;;;1.18;81.32
25664;BME280;13522;50.018;20.014;2023-02-28T08:37:42;100261.80;;;1.54;80.95
25664;BME280;13522;50.018;20.014;2023-02-28T08:41:00;100257.88;;;2.16;78.37
25664;BME280;13522;50.018;20.014;2023-02-28T08:44:14;100251.50;;;2.71;77.21
25664;BME280;13522;50.018;20.014;2023-02-28T08:47:28;100255.93;;;3.14;72.20
25664;BME280;13522;50.018;20.014;2023-02-28T08:50:40;100254.42;;;3.72;69.49
25664;BME280;13522;50.018;20.014;2023-02-28T08:53:55;100232.38;;;4.73;64.97
25664;BME280;13522;50.018;20.014;2023-02-28T08:57:09;100239.18;;;4.96;64.16
25664;BME280;13522;50.018;20.014;2023-02-28T09:00:23;100235.28;;;5.40;62.97
25664;BME280;13522;50.018;20.014;2023-02-28T09:03:36;100247.08;;;5.50;60.82
25664;BME280;13522;50.018;20.014;2023-02-28T09:06:49;100236.43;;;5.87;56.39
25664;BME280;13522;50.018;20.014;2023-02-28T09:10:01;100231.73;;;6.27;57.36
25664;BME280;13522;50.018;20.014;2023-02-28T09:13:13;100231.14;;;6.70;55.36
25664;BME280;13522;50.018;20.014;2023-02-28T09:16:25;100229.13;;;6.90;52.46
25664;BME280;13522;50.018;20.014;2023-02-28T09:19:39;100223.23;;;6.85;51.97
25664;BME280;13522;50.018;20.014;2023-02-28T09:22:51;100231.72;;;6.44;53.22
25664;BME280;13522;50.018;20.014;2023-02-28T09:26:03;100217.80;;;7.04;53.73
25664;BME280;13522;50.018;20.014;2023-02-28T09:29:16;100227.08;;;6.95;51.86
25664;BME280;13522;50.018;20.014;2023-02-28T09:32:28;100228.72;;;6.50;51.90
25664;BME280;13522;50.018;20.014;2023-02-28T09:35:40;100231.73;;;6.27;53.80
25664;BME280;13522;50.018;20.014;2023-02-28T09:38:52;100225.11;;;5.85;54.59
25664;BME280;13522;50.018;20.014;2023-02-28T09:42:05;100229.31;;;6.39;55.77
25664;BME280;13522;50.018;20.014;2023-02-28T09:45:27;100221.35;;;6.72;53.40
25664;BME280;13522;50.018;20.014;2023-02-28T09:48:39;100224.62;;;6.92;51.11
25664;BME280;13522;50.018;20.014;2023-02-28T09:51:57;100217.98;;;7.01;49.92
25664;BME280;13522;50.018;20.014;2023-02-28T09:55:22;100231.86;;;6.41;53.47
25664;BME280;13522;50.018;20.014;2023-02-28T09:58:40;100236.43;;;5.87;52.05
25664;BME280;13522;50.018;20.014;2023-02-28T10:02:00;100237.89;;;5.93;52.92
25664;BME280;13522;50.018;20.014;2023-02-28T10:05:15;100236.13;;;5.93;53.67
25664;BME280;13522;50.018;20.014;2023-02-28T10:08:31;100231.25;;;6.84;54.06
25664;BME280;13522;50.018;20.014;2023-02-28T10:11:47;100228.61;;;6.84;51.82
25664;BME280;13522;50.018;20.014;2023-02-28T10:15:07;100226.70;;;6.55;51.20
25664;BME280;13522;50.018;20.014;2023-02-28T10:18:22;100219.47;;;6.58;51.64
25664;BME280;13522;50.018;20.014;2023-02-28T10:21:39;100228.95;;;6.30;52.87
25664;BME280;13522;50.018;20.014;2023-02-28T10:24:54;100222.63;;;5.99;54.29
25664;BME280;13522;50.018;20.014;2023-02-28T10:28:15;100219.51;;;5.74;53.63
25664;BME280;13522;50.018;20.014;2023-02-28T10:31:28;100213.77;;;6.00;53.27
25664;BME280;13522;50.018;20.014;2023-02-28T10:34:41;100212.39;;;5.93;53.15
25664;BME280;13522;50.018;20.014;2023-02-28T10:37:56;100206.64;;;5.68;54.97
25664;BME280;13522;50.018;20.014;2023-02-28T10:41:11;100205.85;;;6.00;57.08
25664;BME280;13522;50.018;20.014;2023-02-28T10:44:25;100200.38;;;6.38;54.79
25664;BME280;13522;50.018;20.014;2023-02-28T10:47:40;100205.08;;;5.98;55.22
25664;BME280;13522;50.018;20.014;2023-02-28T10:51:02;100209.27;;;6.02;55.25
25664;BME280;13522;50.018;20.014;2023-02-28T10:54:22;100201.17;;;6.23;52.59
25664;BME280;13522;50.018;20.014;2023-02-28T10:57:35;100195.89;;;6.23;53.21
25664;BME280;13522;50.018;20.014;2023-02-28T11:00:47;100194.16;;;5.89;53.00
25664;BME280;13522;50.018;20.014;2023-02-28T11:04:00;100187.20;;;6.21;55.36
25664;BME280;13522;50.018;20.014;2023-02-28T11:07:20;100176.89;;;6.49;51.42
25664;BME280;13522;50.018;20.014;2023-02-28T11:10:35;100174.64;;;6.26;50.79
25664;BME280;13522;50.018;20.014;2023-02-28T11:13:50;100174.97;;;6.20;52.08
25664;BME280;13522;50.018;20.014;2023-02-28T11:17:13;100170.42;;;6.54;54.58
25664;BME280;13522;50.018;20.014;2023-02-28T11:20:32;100173.01;;;6.23;53.70
25664;BME280;13522;50.018;20.014;2023-02-28T11:23:45;100170.70;;;6.17;53.25
25664;BME280;13522;50.018;20.014;2023-02-28T11:26:58;100158.16;;;6.38;53.01
25664;BME280;13522;50.018;20.014;2023-02-28T11:30:27;100157.72;;;6.30;52.82
25664;BME280;13522;50.018;20.014;2023-02-28T11:33:44;100141.91;;;6.45;51.98
25664;BME280;13522;50.018;20.014;2023-02-28T11:36:58;100132.09;;;6.94;50.90
25664;BME280;13522;50.018;20.014;2023-02-28T11:40:15;100135.27;;;7.30;52.23
25664;BME280;13522;50.018;20.014;2023-02-28T11:43:30;100139.08;;;7.40;51.45
25664;BME280;13522;50.018;20.014;2023-02-28T11:46:50;100136.39;;;7.26;50.54
25664;BME280;13522;50.018;20.014;2023-02-28T11:53:57;100128.05;;;7.18;50.79
25664;BME280;13522;50.018;20.014;2023-02-28T11:57:31;100120.31;;;6.99;52.54
25664;BME280;13522;50.018;20.014;2023-02-28T12:01:00;100125.91;;;7.54;54.28
25664;BME280;13522;50.018;20.014;2023-02-28T12:04:24;100121.91;;;7.47;52.15
25664;BME280;13522;50.018;20.014;2023-02-28T12:07:46;100119.66;;;7.55;50.90
25664;BME280;13522;50.018;20.014;2023-02-28T12:11:09;100111.13;;;7.94;48.17
25664;BME280;13522;50.018;20.014;2023-02-28T12:18:16;100115.50;;;7.51;51.08
25664;BME280;13522;50.018;20.014;2023-02-28T12:21:38;100117.52;;;7.03;49.66
25664;BME280;13522;50.018;20.014;2023-02-28T12:25:28;100124.73;;;7.15;49.28
25664;BME280;13522;50.018;20.014;2023-02-28T12:29:01;100118.80;;;7.55;49.99
25664;BME280;13522;50.018;20.014;2023-02-28T12:32:12;100117.84;;;7.42;51.80
25664;BME280;13522;50.018;20.014;2023-02-28T12:35:32;100127.16;;;6.88;53.94
25664;BME280;13522;50.018;20.014;2023-02-28T12:38:47;100133.05;;;6.93;54.37
25664;BME280;13522;50.018;20.014;2023-02-28T12:42:03;100125.63;;;6.84;54.53
25664;BME280;13522;50.018;20.014;2023-02-28T12:45:22;100121.30;;;6.83;53.62
25664;BME280;13522;50.018;20.014;2023-02-28T12:48:38;100123.94;;;6.83;52.43
25664;BME280;13522;50.018;20.014;2023-02-28T12:51:53;100125.88;;;6.64;53.26
25664;BME280;13522;50.018;20.014;2023-02-28T12:55:11;100122.91;;;6.39;53.97
25664;BME280;13522;50.018;20.014;2023-02-28T12:58:28;100125.97;;;6.31;56.05
25664;BME280;13522;50.018;20.014;2023-02-28T13:01:51;100113.88;;;6.43;56.35
25664;BME280;13522;50.018;20.014;2023-02-28T13:09:10;100120.91;;;5.44;55.71
25664;BME280;13522;50.018;20.014;2023-02-28T13:12:23;100113.88;;;5.94;60.08
25664;BME280;13522;50.018;20.014;2023-02-28T13:15:36;100112.46;;;6.04;56.75
25664;BME280;13522;50.018;20.014;2023-02-28T13:18:50;100113.30;;;5.55;55.83
25664;BME280;13522;50.018;20.014;2023-02-28T13:22:03;100105.53;;;5.69;56.94
25664;BME280;13522;50.018;20.014;2023-02-28T13:25:52;100104.44;;;5.73;57.40
25664;BME280;13522;50.018;20.014;2023-02-28T13:32:42;100094.27;;;5.83;57.81
25664;BME280;13522;50.018;20.014;2023-02-28T13:36:08;100093.22;;;5.53;58.30
25664;BME280;13522;50.018;20.014;2023-02-28T13:39:48;100089.88;;;5.83;58.15
25664;BME280;13522;50.018;20.014;2023-02-28T13:43:01;100091.09;;;5.93;58.63
25664;BME280;13522;50.018;20.014;2023-02-28T13:46:16;100089.02;;;6.16;60.77
25664;BME280;13522;50.018;20.014;2023-02-28T13:49:30;100093.08;;;6.05;57.32
25664;BME280;13522;50.018;20.014;2023-02-28T13:52:48;100087.02;;;5.88;56.77
25664;BME280;13522;50.018;20.014;2023-02-28T13:56:15;100084.66;;;5.82;59.14
25664;BME280;13522;50.018;20.014;2023-02-28T13:59:35;100072.29;;;5.84;57.99
25664;BME280;13522;50.018;20.014;2023-02-28T14:03:03;100071.10;;;5.89;57.43
25664;BME280;13522;50.018;20.014;2023-02-28T14:06:35;100064.11;;;5.88;56.92
25664;BME280;13522;50.018;20.014;2023-02-28T14:09:54;100065.66;;;5.92;56.63
25664;BME280;13522;50.018;20.014;2023-02-28T14:16:53;100063.69;;;5.63;57.76
25664;BME280;13522;50.018;20.014;2023-02-28T14:20:13;100060.23;;;5.46;57.58
25664;BME280;13522;50.018;20.014;2023-02-28T14:23:54;100065.98;;;5.37;59.02
25664;BME280;13522;50.018;20.014;2023-02-28T14:27:37;100063.41;;;5.35;59.24
25664;BME280;13522;50.018;20.014;2023-02-28T14:30:59;100065.44;;;5.30;63.27
25664;BME280;13522;50.018;20.014;2023-02-28T14:34:34;100065.58;;;5.27;60.94
25664;BME280;13522;50.018;20.014;2023-02-28T14:37:50;100061.88;;;5.14;62.15
25664;BME280;13522;50.018;20.014;2023-02-28T14:41:04;100063.58;;;4.98;63.22
25664;BME280;13522;50.018;20.014;2023-02-28T14:44:24;100063.78;;;4.76;64.14
25664;BME280;13522;50.018;20.014;2023-02-28T14:47:37;100064.25;;;4.67;64.02
25664;BME280;13522;50.018;20.014;2023-02-28T14:50:55;100075.24;;;4.39;63.51
25664;BME280;13522;50.018;20.014;2023-02-28T14:54:16;100063.29;;;4.32;64.39
25664;BME280;13522;50.018;20.014;2023-02-28T14:57:31;100078.08;;;4.35;65.47
25664;BME280;13522;50.018;20.014;2023-02-28T15:00:50;100076.47;;;4.14;65.48
25664;BME280;13522;50.018;20.014;2023-02-28T15:04:06;100075.50;;;3.96;65.03
25664;BME280;13522;50.018;20.014;2023-02-28T15:07:24;100071.39;;;3.91;66.07
25664;BME280;13522;50.018;20.014;2023-02-28T15:10:40;100077.08;;;4.00;68.18
25664;BME280;13522;50.018;20.014;2023-02-28T15:13:55;100077.42;;;3.74;67.53
25664;BME280;13522;50.018;20.014;2023-02-28T15:17:11;100074.05;;;3.71;67.73
25664;BME280;13522;50.018;20.014;2023-02-28T15:20:28;100071.14;;;3.58;70.47
25664;BME280;13522;50.018;20.014;2023-02-28T15:23:42;100075.45;;;3.59;70.16
25664;BME280;13522;50.018;20.014;2023-02-28T15:26:59;100072.12;;;3.56;69.42
25664;BME280;13522;50.018;20.014;2023-02-28T15:30:19;100074.89;;;3.53;70.42
25664;BME280;13522;50.018;20.014;2023-02-28T15:33:34;100068.45;;;3.39;68.93
25664;BME280;13522;50.018;20.014;2023-02-28T15:36:46;100080.80;;;3.37;70.18
25664;BME280;13522;50.018;20.014;2023-02-28T15:40:05;100071.53;;;3.29;69.53
25664;BME280;13522;50.018;20.014;2023-02-28T15:43:27;100075.99;;;3.27;73.39
25664;BME280;13522;50.018;20.014;2023-02-28T15:46:41;100063.91;;;3.23;72.25
25664;BME280;13522;50.018;20.014;2023-02-28T15:49:58;100070.50;;;3.13;73.67
25664;BME280;13522;50.018;20.014;2023-02-28T15:53:19;100076.13;;;3.04;73.55
25664;BME280;13522;50.018;20.014;2023-02-28T15:56:38;100083.34;;;2.99;75.88
25664;BME280;13522;50.018;20.014;2023-02-28T15:59:55;100075.91;;;2.88;75.08
25664;BME280;13522;50.018;20.014;2023-02-28T16:03:34;100080.69;;;2.79;76.57
25664;BME280;13522;50.018;20.014;2023-02-28T16:07:05;100080.62;;;2.80;74.31
25664;BME280;13522;50.018;20.014;2023-02-28T16:10:23;100084.20;;;2.78;74.62
25664;BME280;13522;50.018;20.014;2023-02-28T16:13:37;100085.31;;;2.72;76.06
25664;BME280;13522;50.018;20.014;2023-02-28T16:16:51;100082.59;;;2.53;75.81
25664;BME280;13522;50.018;20.014;2023-02-28T16:20:11;100083.50;;;2.52;75.68
25664;BME280;13522;50.018;20.014;2023-02-28T16:23:25;100089.91;;;2.45;75.15
25664;BME280;13522;50.018;20.014;2023-02-28T16:26:37;100093.91;;;2.32;76.37
25664;BME280;13522;50.018;20.014;2023-02-28T16:29:53;100088.10;;;2.24;76.14
25664;BME280;13522;50.018;20.014;2023-02-28T16:33:07;100088.23;;;2.21;76.48
25664;BME280;13522;50.018;20.014;2023-02-28T16:36:22;100088.41;;;2.17;76.35
25664;BME280;13522;50.018;20.014;2023-02-28T16:39:35;100099.28;;;2.06;76.53
25664;BME280;13522;50.018;20.014;2023-02-28T16:42:48;100111.58;;;2.04;76.09
25664;BME280;13522;50.018;20.014;2023-02-28T16:46:02;100103.34;;;1.92;76.19
25664;BME280;13522;50.018;20.014;2023-02-28T16:49:15;100116.15;;;1.76;76.86
25664;BME280;13522;50.018;20.014;2023-02-28T16:52:27;100116.24;;;1.73;80.79
25664;BME280;13522;50.018;20.014;2023-02-28T16:55:39;100113.78;;;1.68;80.02
25664;BME280;13522;50.018;20.014;2023-02-28T16:58:53;100109.75;;;1.60;80.89
25664;BME280;13522;50.018;20.014;2023-02-28T17:02:12;100119.30;;;1.61;80.60
25664;BME280;13522;50.018;20.014;2023-02-28T17:05:27;100122.72;;;1.63;80.20
25664;BME280;13522;50.018;20.014;2023-02-28T17:08:42;100118.63;;;1.56;80.01
25664;BME280;13522;50.018;20.014;2023-02-28T17:11:54;100125.77;;;1.51;80.23
25664;BME280;13522;50.018;20.014;2023-02-28T17:15:08;100097.13;;;1.22;80.26
25664;BME280;13522;50.018;20.014;2023-02-28T17:18:23;100119.05;;;1.44;79.96
25664;BME280;13522;50.018;20.014;2023-02-28T17:21:38;100121.52;;;1.48;79.75
25664;BME280;13522;50.018;20.014;2023-02-28T17:24:51;100117.23;;;1.46;80.07
25664;BME280;13522;50.018;20.014;2023-02-28T17:28:05;100126.84;;;1.45;80.31
25664;BME280;13522;50.018;20.014;2023-02-28T17:31:18;100125.23;;;1.41;81.01
25664;BME280;13522;50.018;20.014;2023-02-28T17:34:31;100127.20;;;1.35;81.26
25664;BME280;13522;50.018;20.014;2023-02-28T17:37:43;100118.19;;;1.19;81.78
25664;BME280;13522;50.018;20.014;2023-02-28T17:40:55;100128.45;;;1.25;81.80
25664;BME280;13522;50.018;20.014;2023-02-28T17:44:07;100116.46;;;1.18;82.14
25664;BME280;13522;50.018;20.014;2023-02-28T17:47:20;100115.57;;;1.19;81.65
25664;BME280;13522;50.018;20.014;2023-02-28T17:50:32;100116.58;;;1.15;82.01
25664;BME280;13522;50.018;20.014;2023-02-28T17:53:44;100113.04;;;1.16;81.87